Řízení letového provozu České republiky
Letiste: LKNA Aktualizace: 29.04.2017 05:06:12  UTC
 METAR LKNA 29.04. 05:00 COR
METAR COR LKNA 290500Z 31008KT 4000 BR NSC 01/01 Q1016 NOSIG=
 TAF LKNA 28.04. 23:00 ...
TAF LKNA 282300Z 2900/3000 33010KT 9999 SCT010 BKN025      PROB40 TEMPO 3000/2902 6000 RA BKN007 OVC015      TEMPO 2909/2915 SHRA SCT005 BKN020=